Bei Facebook empfehlenBei Twitter postenGoogle plusPinterest

Das Wetter im Erzgebirge am 25.06.2017

Wetter und Klima am 25.06.2017 Holzhau im Erzgebirge (630m ü.NN)
Letzte gemessene Temperatur und Uhrzeit der Messung23:45:00 Uhr14.30 °C
Temperatur (Maximum / Höchstwert) und Uhrzeit der Messung13:30:00 Uhr25.40 °C
Temperatur (Minimum / Tiefstwert) und Uhrzeit der Messung05:00:008.10 °C
Errechneter Absolutwert der Temperaturschwankungen zwischen Tmin und Tmax des Tages17.30 K
Errechnete Tagesmitteltemperatur17.66979 °C
Gesamt - Niederschlag des Tages (in flüssiger Form)0.00 Liter / m²
Luftdruck (Maximum / Höchstwert) und Zeitpunkt der Messung00:15:00 Uhr1012.10 hPa
Luftdruck (Minimum / Tiefstwert) und Zeitpunkt der Messung17:15:00 Uhr1008.80 hPa
Errechneter Absolutwert der Luftdruckschwankungen des Tages3.30 hPa
Höchste gemessene Windgeschwindigkeit und Uhrzeit der Messung15:15:00 Uhr36.36 km/h
Errechnete Windhäufigkeit in Relation zu den Messwerten des Tages26.04167 %
Niedrigste Windkühle (Windchill) und Zeitpunkt der Messung05:00:00 Uhr8.10 °C
Taupunkt (Maximum / Höchstwert) und Uhrzeit der Messung07:30:00 Uhr13.90 °C
Taupunkt (Minimum / Tiefstwert) und Uhrzeit der Messung05:00:006.60 °C
Anzahl der automatisch eingelesenen Messwerte 96

Detaillierte Wetter- und Klima- Messwerte für den 25.06.2017 in Holzhau im Erzgebirge (630m ü.NN)
ZeitTemperaturLuftdruckRel. LuftfeuchteWindWindrichtungWindchillTaupunktNiederschlag l/m²
23:45:0014.30 °C1009.70 hPa79.00 %10.70 °C 
23:30:0015.10 °C1009.50 hPa77.00 %11.10 °C 
23:15:0015.80 °C1009.50 hPa77.00 %11.80 °C 
23:00:0015.90 °C1009.50 hPa77.00 %11.90 °C 
22:45:0016.10 °C1009.30 hPa76.00 %11.90 °C 
22:30:0016.30 °C1009.50 hPa75.00 %11.90 °C 
22:15:0016.40 °C1009.60 hPa74.00 %11.80 °C 
22:00:0016.60 °C1009.80 hPa74.00 %12.00 °C 
21:45:0016.80 °C1009.70 hPa73.00 %11.90 °C 
21:30:0016.90 °C1009.80 hPa72.00 %11.80 °C 
21:15:0017.10 °C1009.60 hPa72.00 %12.00 °C 
21:00:0017.50 °C1009.50 hPa70.00 %12.00 °C 
20:45:0017.80 °C1009.50 hPa69.00 %12.00 °C 
20:30:0018.10 °C1009.40 hPa67.00 %11.90 °C 
20:15:0018.30 °C1009.30 hPa65.00 %11.60 °C 
20:00:0018.90 °C1009.40 hPa61.00 %11.20 °C 
19:45:0019.60 °C1009.40 hPa59.00 %11.40 °C 
19:30:0019.80 °C1009.30 hPa59.00 %11.60 °C 
19:15:0019.90 °C1009.40 hPa57.00 %25.92 km/hW20.70 °C11.10 °C 
19:00:0020.30 °C1009.20 hPa56.00 %3.96 km/hSW20.30 °C11.20 °C 
18:45:0020.70 °C1009.40 hPa54.00 %11.10 °C 
18:30:0021.30 °C1009.00 hPa54.00 %10.44 km/hNW21.30 °C11.60 °C 
18:15:0021.80 °C1009.00 hPa53.00 %12.96 km/hWSW21.80 °C11.80 °C 
18:00:0021.90 °C1009.00 hPa54.00 %12.20 °C 
17:45:0022.70 °C1009.00 hPa53.00 %12.60 °C 
17:30:0022.70 °C1008.90 hPa53.00 %25.92 km/hWSW24.00 °C12.60 °C 
17:15:0023.10 °C1008.80 hPa51.00 %7.92 km/hSW23.10 °C12.40 °C 
17:00:0023.10 °C1009.00 hPa53.00 %28.44 km/hWNW24.40 °C13.00 °C 
16:45:0022.90 °C1008.90 hPa54.00 %32.40 km/hW24.10 °C13.10 °C 
16:30:0023.00 °C1008.90 hPa53.00 %12.90 °C 
16:15:0023.40 °C1008.90 hPa49.00 %12.10 °C 
16:00:0024.40 °C1009.10 hPa48.00 %14.40 km/hNW24.40 °C12.70 °C 
15:45:0025.10 °C1009.10 hPa47.00 %13.00 °C 
15:30:0024.50 °C1008.80 hPa47.00 %12.50 °C 
15:15:0024.80 °C1008.90 hPa46.00 %36.36 km/hSSW26.30 °C12.40 °C 
15:00:0025.20 °C1009.10 hPa46.00 %12.96 km/hNNW25.20 °C12.80 °C 
14:45:0024.40 °C1009.20 hPa46.00 %10.44 km/hWNW24.40 °C12.00 °C 
14:30:0024.60 °C1009.10 hPa45.00 %11.90 °C 
14:15:0023.80 °C1009.00 hPa47.00 %7.92 km/hWNW23.80 °C11.80 °C 
14:00:0024.60 °C1009.10 hPa44.00 %11.50 °C 
13:45:0025.30 °C1008.90 hPa43.00 %11.80 °C 
13:30:0025.40 °C1009.20 hPa45.00 %29.88 km/hWNW27.10 °C12.60 °C 
13:15:0024.90 °C1009.10 hPa46.00 %12.50 °C 
13:00:0024.50 °C1009.30 hPa48.00 %12.80 °C 
12:45:0023.50 °C1009.30 hPa49.00 %12.20 °C 
12:30:0023.40 °C1009.60 hPa47.00 %11.50 °C 
12:15:0023.90 °C1009.60 hPa49.00 %12.50 °C 
12:00:0023.20 °C1009.60 hPa52.00 %12.80 °C 
11:45:0023.10 °C1009.70 hPa51.00 %12.40 °C 
11:30:0022.90 °C1009.70 hPa50.00 %14.40 km/hWNW22.90 °C11.90 °C 
11:15:0023.80 °C1009.60 hPa50.00 %12.80 °C 
11:00:0023.30 °C1009.70 hPa50.00 %3.96 km/hWNW23.30 °C12.30 °C 
10:45:0022.80 °C1009.80 hPa52.00 %6.48 km/hWSW22.80 °C12.40 °C 
10:30:0021.70 °C1009.70 hPa54.00 %19.44 km/hSW23.00 °C12.00 °C 
10:15:0021.70 °C1009.80 hPa53.00 %11.70 °C 
10:00:0022.70 °C1009.80 hPa53.00 %3.96 km/hWNW22.70 °C12.60 °C 
09:45:0021.80 °C1009.60 hPa54.00 %1.44 km/hN21.80 °C12.10 °C 
09:30:0021.60 °C1009.60 hPa55.00 %36.36 km/hWNW22.50 °C12.20 °C 
09:15:0021.60 °C1009.60 hPa54.00 %3.96 km/hWSW21.60 °C11.90 °C 
09:00:0021.90 °C1009.50 hPa55.00 %12.50 °C 
08:45:0021.10 °C1009.40 hPa57.00 %12.30 °C 
08:30:0020.80 °C1009.30 hPa58.00 %2.52 km/hSSW20.80 °C12.20 °C 
08:15:0021.10 °C1009.70 hPa57.00 %12.30 °C 
08:00:0021.20 °C1009.80 hPa58.00 %12.60 °C 
07:45:0020.80 °C1009.60 hPa64.00 %13.70 °C 
07:30:0018.80 °C1009.50 hPa73.00 %13.90 °C 
07:15:0015.30 °C1009.40 hPa84.00 %12.60 °C 
07:00:0011.30 °C1009.70 hPa90.00 %9.70 °C 
06:45:0010.40 °C1009.80 hPa91.00 %9.00 °C 
06:30:009.80 °C1009.90 hPa91.00 %8.40 °C 
06:15:009.30 °C1009.90 hPa91.00 %3.96 km/hSO9.30 °C7.90 °C 
06:00:009.10 °C1010.20 hPa91.00 %7.70 °C 
05:45:008.90 °C1010.30 hPa91.00 %7.50 °C 
05:30:008.60 °C1010.20 hPa91.00 %7.20 °C 
05:15:008.40 °C1010.30 hPa91.00 %7.00 °C 
05:00:008.10 °C1010.50 hPa90.00 %6.60 °C 
04:45:008.20 °C1010.50 hPa90.00 %6.70 °C 
04:30:008.30 °C1010.70 hPa89.00 %6.60 °C 
04:15:008.50 °C1010.70 hPa89.00 %6.80 °C 
04:00:008.70 °C1010.80 hPa89.00 %7.00 °C 
03:45:008.90 °C1010.70 hPa89.00 %7.20 °C 
03:30:009.00 °C1010.60 hPa89.00 %7.30 °C 
03:15:009.10 °C1010.70 hPa88.00 %11.52 km/hSO9.10 °C7.20 °C 
03:00:009.30 °C1010.90 hPa88.00 %7.40 °C 
02:45:009.40 °C1011.20 hPa87.00 %7.30 °C 
02:30:009.60 °C1011.30 hPa87.00 %7.50 °C 
02:15:0010.00 °C1011.60 hPa86.00 %7.80 °C 
02:00:0010.30 °C1011.70 hPa87.00 %8.20 °C 
01:45:0010.30 °C1011.70 hPa86.00 %8.10 °C 
01:30:0010.60 °C1011.80 hPa85.00 %8.20 °C 
01:15:0010.60 °C1012.00 hPa86.00 %8.40 °C 
01:00:0010.80 °C1011.90 hPa86.00 %8.60 °C 
00:45:0010.70 °C1012.00 hPa85.00 %8.30 °C 
00:30:0010.70 °C1012.00 hPa84.00 %8.10 °C 
00:15:0010.80 °C1012.10 hPa83.00 %8.00 °C 
00:00:0011.00 °C1012.10 hPa82.00 %8.00 °C 

Permanenter Link zu dieser Seite: Wetter im Erzgebirge am 25.06.2017
Performance-Info: Die Erstellung der Seite / Statistik(en) / Tabelle(n) erforderte 5 Datenbankserver-Abfrage(n) und dauerte 123 Millisekunden. (Dieser Messwert ist von der Gesamt-Auslastung des Servers abhängig.)
Erzgebirge - Wetter | Erzgebirge - Wetter (Mobilgeräte) | Komplette Klimadatenbank